createdAt,value
2019-02-22T00:01:38.783Z,51.75
2019-02-22T00:04:07.115Z,52.95
2019-02-22T00:06:35.480Z,51.00
2019-02-22T00:09:05.301Z,57.60
2019-02-22T00:11:33.707Z,53.05
2019-02-22T00:14:02.428Z,54.23
2019-02-22T00:16:35.618Z,50.05
2019-02-22T00:19:11.301Z,50.78
2019-02-22T00:21:43.097Z,48.10
2019-02-22T00:24:16.833Z,49.95
2019-02-22T00:26:45.281Z,56.05
2019-02-22T00:29:13.627Z,48.78
2019-02-22T00:31:41.944Z,46.20
2019-02-22T00:34:10.333Z,50.73
2019-02-22T00:36:38.672Z,47.25
2019-02-22T00:39:07.056Z,45.65
2019-02-22T00:41:35.421Z,43.10
2019-02-22T00:44:05.880Z,45.65
2019-02-22T00:46:35.601Z,43.08
2019-02-22T00:49:03.991Z,50.33
2019-02-22T00:51:35.458Z,59.65
2019-02-22T00:54:04.261Z,44.08
2019-02-22T00:56:38.596Z,52.60
2019-02-22T00:59:08.747Z,42.03
2019-02-22T01:01:37.345Z,43.45
2019-02-22T01:04:05.909Z,36.55
2019-02-22T01:06:34.406Z,39.13
2019-02-22T01:09:05.599Z,42.55
2019-02-22T01:11:35.362Z,40.65
2019-02-22T01:14:03.740Z,41.20
2019-02-22T01:16:32.082Z,50.75
2019-02-22T01:19:02.001Z,44.53
2019-02-22T01:21:30.543Z,45.60
2019-02-22T01:23:58.939Z,51.37
2019-02-22T01:26:29.118Z,42.95
2019-02-22T01:28:57.451Z,48.25
2019-02-22T01:31:25.799Z,48.50
2019-02-22T01:33:54.331Z,48.33
2019-02-22T01:36:22.889Z,45.73
2019-02-22T01:38:53.564Z,49.88
2019-02-22T01:41:21.844Z,47.55
2019-02-22T01:43:50.163Z,43.55
2019-02-22T01:46:21.588Z,47.85
2019-02-22T01:48:50.006Z,45.65
2019-02-22T01:51:20.145Z,57.30
2019-02-22T01:53:48.586Z,50.28
2019-02-22T01:56:18.161Z,51.58
2019-02-22T01:58:48.896Z,50.83
2019-02-22T02:01:16.563Z,51.48
2019-02-22T02:03:44.907Z,55.00
2019-02-22T02:06:13.429Z,46.53
2019-02-22T02:08:42.104Z,54.93
2019-02-22T02:11:10.381Z,52.48
2019-02-22T02:13:38.774Z,51.53
2019-02-22T02:16:09.223Z,50.03
2019-02-22T02:18:40.883Z,46.55
2019-02-22T02:21:09.267Z,48.90
2019-02-22T02:23:37.546Z,54.48
2019-02-22T02:26:05.829Z,51.23
2019-02-22T02:28:34.227Z,45.48
2019-02-22T02:31:02.595Z,48.00
2019-02-22T02:33:31.016Z,44.08
2019-02-22T02:35:59.340Z,43.55
2019-02-22T02:38:27.619Z,46.53
2019-02-22T02:41:07.065Z,50.48
2019-02-22T02:43:26.003Z,51.92
2019-02-22T02:45:54.286Z,52.83
2019-02-22T02:48:22.658Z,47.98
2019-02-22T02:50:51.044Z,47.15
2019-02-22T02:53:19.404Z,48.25
2019-02-22T02:55:47.759Z,46.08
2019-02-22T02:58:16.336Z,39.30
2019-02-22T03:00:44.633Z,41.42
2019-02-22T03:03:13.005Z,42.10
2019-02-22T03:05:45.503Z,42.85
2019-02-22T03:08:13.788Z,41.50
2019-02-22T03:10:42.063Z,30.48
2019-02-22T03:13:10.435Z,28.15
2019-02-22T03:15:38.789Z,25.17
2019-02-22T03:18:07.091Z,22.87
2019-02-22T03:20:35.413Z,19.42
2019-02-22T03:23:03.748Z,17.25
2019-02-22T03:25:32.024Z,18.10
2019-02-22T03:28:00.338Z,17.35
2019-02-22T03:30:28.695Z,16.90
2019-02-22T03:32:57.046Z,16.37
2019-02-22T03:35:25.444Z,17.52
2019-02-22T03:37:53.819Z,15.65
2019-02-22T03:40:22.173Z,17.07
2019-02-22T03:42:50.494Z,18.37
2019-02-22T03:45:18.851Z,16.60
2019-02-22T03:47:47.131Z,18.37
2019-02-22T03:50:15.436Z,16.30
2019-02-22T03:52:45.364Z,12.28
2019-02-22T03:55:13.642Z,12.10
2019-02-22T03:57:42.070Z,11.68
2019-02-22T04:00:11.099Z,10.20
2019-02-22T04:02:39.390Z,9.58
2019-02-22T04:05:08.116Z,9.65
2019-02-22T04:07:36.482Z,8.90
2019-02-22T04:10:06.409Z,9.98
2019-02-22T04:12:34.790Z,10.05
2019-02-22T04:15:03.804Z,9.60
2019-02-22T04:17:32.169Z,9.38
2019-02-22T04:20:00.547Z,7.90
2019-02-22T04:22:28.871Z,7.55
2019-02-22T04:24:57.319Z,7.20
2019-02-22T04:27:25.694Z,5.67
2019-02-22T04:29:53.975Z,5.67
2019-02-22T04:32:22.354Z,7.30
2019-02-22T04:34:50.743Z,7.80
2019-02-22T04:37:19.023Z,6.78
2019-02-22T04:39:47.285Z,5.00
2019-02-22T04:42:15.588Z,5.40
2019-02-22T04:44:43.857Z,5.53
2019-02-22T04:47:12.192Z,5.90
2019-02-22T04:49:40.559Z,6.12
2019-02-22T04:52:08.847Z,6.37
2019-02-22T04:54:37.193Z,7.85
2019-02-22T04:57:05.499Z,8.10
2019-02-22T04:59:33.914Z,10.10
2019-02-22T05:02:02.467Z,9.98
2019-02-22T05:04:30.840Z,10.23
2019-02-22T05:06:59.149Z,8.75
2019-02-22T05:09:27.496Z,8.08
2019-02-22T05:11:55.879Z,9.03
2019-02-22T05:14:24.227Z,9.35
2019-02-22T05:16:52.503Z,7.25
2019-02-22T05:19:20.816Z,5.50
2019-02-22T05:21:49.118Z,5.33
2019-02-22T05:24:17.458Z,6.08
2019-02-22T05:26:45.761Z,6.28
2019-02-22T05:29:14.146Z,6.50
2019-02-22T05:31:42.459Z,6.22
2019-02-22T05:34:10.772Z,9.50
2019-02-22T05:36:39.128Z,7.12
2019-02-22T05:39:18.408Z,6.50
2019-02-22T05:41:37.421Z,5.08
2019-02-22T05:44:05.691Z,4.95
2019-02-22T05:46:33.965Z,6.72
2019-02-22T05:49:02.435Z,7.90
2019-02-22T05:51:30.717Z,10.18
2019-02-22T05:53:59.061Z,7.28
2019-02-22T05:56:27.459Z,8.03
2019-02-22T05:58:55.737Z,5.90
2019-02-22T06:01:24.099Z,4.83
2019-02-22T06:03:52.774Z,4.15
2019-02-22T06:06:21.051Z,3.83
2019-02-22T06:08:49.396Z,4.35
2019-02-22T06:11:17.712Z,4.60
2019-02-22T06:13:46.055Z,6.03
2019-02-22T06:16:14.445Z,4.10
2019-02-22T06:18:42.836Z,6.70
2019-02-22T06:21:11.184Z,9.48
2019-02-22T06:23:39.524Z,6.97
2019-02-22T06:26:07.855Z,12.40
2019-02-22T06:28:36.186Z,8.20
2019-02-22T06:31:04.462Z,7.35
2019-02-22T06:33:33.031Z,4.72
2019-02-22T06:36:01.388Z,5.00
2019-02-22T06:38:29.739Z,5.15
2019-02-22T06:40:58.131Z,5.35
2019-02-22T06:43:26.412Z,6.03
2019-02-22T06:45:54.759Z,5.97
2019-02-22T06:48:23.064Z,5.45
2019-02-22T06:50:51.339Z,5.85
2019-02-22T06:53:19.617Z,6.15
2019-02-22T06:55:48.179Z,4.97
2019-02-22T06:58:16.741Z,5.20
2019-02-22T07:00:45.649Z,6.25
2019-02-22T07:03:14.120Z,7.33
2019-02-22T07:05:42.744Z,7.28
2019-02-22T07:08:11.051Z,11.45
2019-02-22T07:10:52.972Z,17.10
2019-02-22T07:13:21.319Z,8.55
2019-02-22T07:15:49.603Z,7.83
2019-02-22T07:18:17.919Z,17.67
2019-02-22T07:20:46.268Z,10.10
2019-02-22T07:23:14.640Z,12.23
2019-02-22T07:25:43.019Z,12.93
2019-02-22T07:28:11.434Z,17.60
2019-02-22T07:30:39.776Z,14.70
2019-02-22T07:33:08.079Z,9.48
2019-02-22T07:35:36.359Z,23.67
2019-02-22T07:38:04.636Z,12.98
2019-02-22T07:40:32.961Z,8.48
2019-02-22T07:43:08.046Z,9.75
2019-02-22T07:45:31.311Z,5.97
2019-02-22T07:47:59.675Z,5.28
2019-02-22T07:50:28.038Z,4.80
2019-02-22T07:52:56.375Z,4.85
2019-02-22T07:55:24.690Z,5.35
2019-02-22T07:57:53.050Z,6.40
2019-02-22T08:00:21.348Z,8.50
2019-02-22T08:02:49.719Z,8.00
2019-02-22T08:05:18.000Z,7.45
2019-02-22T08:07:46.459Z,7.17
2019-02-22T08:10:14.780Z,6.35
2019-02-22T08:12:44.715Z,7.05
2019-02-22T08:15:13.063Z,6.90
2019-02-22T08:17:41.467Z,6.70
2019-02-22T08:20:09.764Z,5.87
2019-02-22T08:22:38.119Z,6.70
2019-02-22T08:25:07.335Z,6.42
2019-02-22T08:27:35.687Z,5.92
2019-02-22T08:30:04.591Z,5.22
2019-02-22T08:32:32.917Z,5.40
2019-02-22T08:35:01.494Z,4.87
2019-02-22T08:37:29.900Z,5.47
2019-02-22T08:39:59.044Z,5.10
2019-02-22T08:42:27.548Z,5.85
2019-02-22T08:44:55.827Z,6.53
2019-02-22T08:47:24.216Z,6.08
2019-02-22T08:49:52.503Z,9.23
2019-02-22T08:52:20.879Z,5.80
2019-02-22T08:54:49.295Z,6.25
2019-02-22T08:57:17.643Z,6.53
2019-02-22T08:59:48.880Z,5.40
2019-02-22T09:02:17.263Z,4.83
2019-02-22T09:04:45.619Z,5.00
2019-02-22T09:07:14.039Z,5.47
2019-02-22T09:09:42.718Z,4.80
2019-02-22T09:12:11.037Z,5.03
2019-02-22T09:14:39.346Z,5.10
2019-02-22T09:17:07.722Z,4.58
2019-02-22T09:19:35.995Z,4.15
2019-02-22T09:22:23.855Z,4.20
2019-02-22T09:24:52.351Z,4.20
2019-02-22T09:27:20.626Z,3.87
2019-02-22T09:29:58.615Z,3.77
2019-02-22T09:32:19.142Z,3.60
2019-02-22T09:34:47.477Z,3.45
2019-02-22T09:37:15.778Z,3.80
2019-02-22T09:39:44.051Z,4.70
2019-02-22T09:42:12.331Z,7.75
2019-02-22T09:44:40.815Z,4.10
2019-02-22T09:47:28.523Z,3.40
2019-02-22T09:49:56.835Z,4.20
2019-02-22T09:52:25.116Z,5.22
2019-02-22T09:54:53.495Z,4.83
2019-02-22T09:57:21.832Z,4.85
2019-02-22T09:59:50.202Z,9.13
2019-02-22T10:02:18.523Z,4.40
2019-02-22T10:04:54.650Z,4.42
2019-02-22T10:07:17.021Z,5.05
2019-02-22T10:09:45.366Z,4.33
2019-02-22T10:12:18.906Z,4.37
2019-02-22T10:17:36.363Z,4.60
2019-02-22T10:20:07.606Z,3.92
2019-02-22T10:22:35.947Z,3.92
2019-02-22T10:25:06.735Z,4.17
2019-02-22T10:27:35.067Z,4.60
2019-02-22T10:30:03.707Z,4.85
2019-02-22T10:32:32.095Z,4.28
2019-02-22T10:35:00.367Z,3.75
2019-02-22T10:37:28.706Z,3.10
2019-02-22T10:39:57.013Z,3.37
2019-02-22T10:42:25.298Z,3.17
2019-02-22T10:44:53.567Z,4.12
2019-02-22T10:47:21.871Z,4.53
2019-02-22T10:49:50.224Z,4.12
2019-02-22T10:52:21.409Z,3.85
2019-02-22T10:54:49.887Z,4.40
2019-02-22T10:57:18.223Z,3.60
2019-02-22T10:59:46.499Z,3.85
2019-02-22T11:02:14.814Z,4.12
2019-02-22T11:04:43.167Z,3.60
2019-02-22T11:07:11.465Z,3.20
2019-02-22T11:09:40.053Z,3.58
2019-02-22T11:12:08.400Z,3.37
2019-02-22T11:14:37.571Z,3.22
2019-02-22T11:17:05.925Z,3.55
2019-02-22T11:19:34.206Z,3.35
2019-02-22T11:22:02.492Z,3.67
2019-02-22T11:24:30.863Z,3.20
2019-02-22T11:26:59.178Z,2.77
2019-02-22T11:29:27.619Z,2.42
2019-02-22T11:31:55.993Z,3.12
2019-02-22T11:34:24.271Z,2.83
2019-02-22T11:36:52.544Z,3.12
2019-02-22T11:39:20.971Z,2.70
2019-02-22T11:41:49.812Z,3.12
2019-02-22T11:44:18.155Z,2.70
2019-02-22T11:46:46.475Z,2.75
2019-02-22T11:49:14.859Z,2.72
2019-02-22T11:51:43.124Z,3.15
2019-02-22T11:54:11.509Z,3.90
2019-02-22T11:56:39.855Z,3.33
2019-02-22T11:59:08.139Z,3.37
2019-02-22T12:01:38.092Z,3.45
2019-02-22T12:04:06.359Z,3.62
2019-02-22T12:06:34.738Z,3.35
2019-02-22T12:09:03.187Z,3.12
2019-02-22T12:11:31.451Z,3.40
2019-02-22T12:13:59.723Z,3.87
2019-02-22T12:16:29.021Z,4.00
2019-02-22T12:18:57.291Z,3.60
2019-02-22T12:21:26.953Z,3.05
2019-02-22T12:26:22.925Z,3.10
2019-02-22T12:28:51.207Z,3.00
2019-02-22T12:31:19.631Z,2.92
2019-02-22T12:33:48.195Z,3.10
2019-02-22T12:36:16.538Z,3.00
2019-02-22T12:38:44.957Z,3.50
2019-02-22T12:41:13.308Z,3.37
2019-02-22T12:43:41.572Z,3.52
2019-02-22T12:46:09.961Z,3.30
2019-02-22T12:48:38.371Z,3.10
2019-02-22T12:51:06.672Z,3.33
2019-02-22T12:53:34.983Z,3.67
2019-02-22T12:56:03.889Z,3.17
2019-02-22T12:58:32.470Z,3.37
2019-02-22T13:01:00.863Z,3.22
2019-02-22T13:03:29.503Z,3.92
2019-02-22T13:05:57.996Z,3.15
2019-02-22T13:08:26.291Z,3.10
2019-02-22T13:10:54.597Z,5.45
2019-02-22T13:13:22.919Z,5.17
2019-02-22T13:15:51.245Z,4.67
2019-02-22T13:18:19.651Z,19.60
2019-02-22T13:20:47.935Z,21.05
2019-02-22T13:23:16.350Z,6.35
2019-02-22T13:25:44.626Z,11.10
2019-02-22T13:28:12.903Z,7.50
2019-02-22T13:30:41.298Z,20.70
2019-02-22T13:33:09.662Z,7.12
2019-02-22T13:35:38.011Z,3.80
2019-02-22T13:38:06.408Z,4.60
2019-02-22T13:40:34.697Z,3.85
2019-02-22T13:43:05.308Z,2.33
2019-02-22T13:45:33.075Z,2.60
2019-02-22T13:48:01.351Z,2.65
2019-02-22T13:50:29.623Z,2.80
2019-02-22T13:52:58.043Z,2.65
2019-02-22T13:55:26.400Z,3.40
2019-02-22T13:57:54.752Z,3.10
2019-02-22T14:00:23.128Z,2.72
2019-02-22T14:02:51.412Z,2.80
2019-02-22T14:05:19.694Z,3.40
2019-02-22T14:07:57.555Z,3.00
2019-02-22T14:10:26.164Z,3.00
2019-02-22T14:12:54.447Z,3.80
2019-02-22T14:15:22.824Z,3.35
2019-02-22T14:17:51.096Z,3.77
2019-02-22T14:20:19.698Z,3.37
2019-02-22T14:22:49.787Z,3.70
2019-02-22T14:25:18.118Z,3.70
2019-02-22T14:27:46.385Z,2.95
2019-02-22T14:30:16.113Z,3.17
2019-02-22T14:32:44.465Z,3.67
2019-02-22T14:35:12.740Z,5.37
2019-02-22T14:37:41.328Z,3.80
2019-02-22T14:40:11.854Z,4.25
2019-02-22T14:42:40.129Z,6.20
2019-02-22T14:45:10.946Z,8.28
2019-02-22T14:47:39.299Z,5.65
2019-02-22T14:50:10.705Z,12.13
2019-02-22T14:52:39.164Z,9.45
2019-02-22T14:55:08.338Z,11.25
2019-02-22T14:57:36.627Z,20.32
2019-02-22T15:00:16.967Z,16.73
2019-02-22T15:02:45.240Z,17.30
2019-02-22T15:05:14.457Z,4.17
2019-02-22T15:07:42.836Z,3.90
2019-02-22T15:10:11.461Z,3.40
2019-02-22T15:12:39.738Z,3.22
2019-02-22T15:15:14.209Z,2.80
2019-02-22T15:17:44.197Z,3.30
2019-02-22T15:20:12.492Z,8.10
2019-02-22T15:22:40.997Z,4.17
2019-02-22T15:25:11.585Z,3.95
2019-02-22T15:27:39.931Z,3.65
2019-02-22T15:30:10.907Z,3.20
2019-02-22T15:32:39.219Z,3.25
2019-02-22T15:35:10.204Z,3.12
2019-02-22T15:37:38.523Z,3.40
2019-02-22T15:40:09.714Z,3.22
2019-02-22T15:42:40.460Z,3.20
2019-02-22T15:45:15.865Z,4.42
2019-02-22T15:47:44.373Z,3.80
2019-02-22T15:50:16.703Z,3.27
2019-02-22T15:52:45.756Z,7.45
2019-02-22T15:55:14.563Z,4.90
2019-02-22T15:57:43.020Z,3.00
2019-02-22T16:00:14.803Z,7.30
2019-02-22T16:02:43.251Z,20.72
2019-02-22T16:05:13.174Z,5.75
2019-02-22T16:07:44.667Z,17.82
2019-02-22T16:10:11.492Z,8.83
2019-02-22T16:12:39.839Z,6.50
2019-02-22T16:15:09.964Z,9.28
2019-02-22T16:17:38.320Z,16.17
2019-02-22T16:20:07.968Z,11.83
2019-02-22T16:22:36.280Z,4.62
2019-02-22T16:25:06.124Z,4.65
2019-02-22T16:30:02.099Z,5.35
2019-02-22T16:32:30.380Z,4.78
2019-02-22T16:34:58.655Z,4.45
2019-02-22T16:37:27.031Z,4.10
2019-02-22T16:39:55.316Z,4.65
2019-02-22T16:42:23.594Z,4.10
2019-02-22T16:44:51.903Z,4.05
2019-02-22T16:47:20.175Z,4.47
2019-02-22T16:49:48.444Z,4.90
2019-02-22T16:52:16.823Z,5.53
2019-02-22T16:54:45.156Z,11.20
2019-02-22T16:57:13.431Z,8.85
2019-02-22T16:59:41.831Z,8.30
2019-02-22T17:02:10.116Z,6.80
2019-02-22T17:04:38.480Z,6.95
2019-02-22T17:07:06.889Z,8.05
2019-02-22T17:09:35.213Z,7.12
2019-02-22T17:12:06.442Z,6.90
2019-02-22T17:14:33.618Z,7.20
2019-02-22T17:17:01.966Z,7.70
2019-02-22T17:19:30.367Z,7.85
2019-02-22T17:21:58.703Z,6.72
2019-02-22T17:24:27.036Z,6.62
2019-02-22T17:26:55.719Z,7.17
2019-02-22T17:29:24.045Z,6.78
2019-02-22T17:31:52.324Z,8.10
2019-02-22T17:34:20.605Z,6.67
2019-02-22T17:36:48.983Z,6.00
2019-02-22T17:39:17.259Z,5.95
2019-02-22T17:41:45.528Z,6.25
2019-02-22T17:44:13.980Z,6.22
2019-02-22T17:46:42.253Z,5.65
2019-02-22T17:49:10.523Z,6.17
2019-02-22T17:51:38.844Z,6.03
2019-02-22T17:54:07.119Z,5.87
2019-02-22T17:56:35.391Z,6.33
2019-02-22T17:59:03.694Z,5.67
2019-02-22T18:01:32.011Z,5.53
2019-02-22T18:04:00.289Z,5.97
2019-02-22T18:06:28.595Z,5.70
2019-02-22T18:08:57.045Z,6.17
2019-02-22T18:11:25.311Z,5.42
2019-02-22T18:13:53.695Z,6.20
2019-02-22T18:16:21.988Z,5.35
2019-02-22T18:18:51.280Z,6.12
2019-02-22T18:21:19.722Z,6.12
2019-02-22T18:23:48.080Z,6.28
2019-02-22T18:26:16.924Z,6.17
2019-02-22T18:28:45.367Z,6.17
2019-02-22T18:31:13.651Z,5.87
2019-02-22T18:33:42.052Z,6.00
2019-02-22T18:36:10.410Z,6.08
2019-02-22T18:38:38.734Z,5.78
2019-02-22T18:41:07.007Z,6.58
2019-02-22T18:43:35.371Z,5.87
2019-02-22T18:46:04.588Z,5.90
2019-02-22T18:48:32.945Z,5.70
2019-02-22T18:51:01.338Z,5.37
2019-02-22T18:53:29.699Z,6.20
2019-02-22T18:55:58.052Z,5.85
2019-02-22T18:58:26.367Z,5.80
2019-02-22T19:00:54.655Z,6.28
2019-02-22T19:03:22.931Z,6.12
2019-02-22T19:05:51.278Z,5.97
2019-02-22T19:08:19.608Z,6.50
2019-02-22T19:10:49.120Z,7.15
2019-02-22T19:13:17.493Z,7.37
2019-02-22T19:15:45.852Z,8.00
2019-02-22T19:18:14.127Z,11.25
2019-02-22T19:20:42.482Z,9.33
2019-02-22T19:23:10.874Z,10.53
2019-02-22T19:25:39.220Z,9.13
2019-02-22T19:28:07.632Z,8.48
2019-02-22T19:30:36.147Z,10.90
2019-02-22T19:33:04.492Z,14.30
2019-02-22T19:35:32.836Z,14.45
2019-02-22T19:38:01.192Z,10.93
2019-02-22T19:40:29.555Z,9.68
2019-02-22T19:42:58.995Z,9.10
2019-02-22T19:45:27.282Z,11.48
2019-02-22T19:47:55.638Z,16.85
2019-02-22T19:50:24.044Z,11.45
2019-02-22T19:52:52.490Z,19.75
2019-02-22T19:55:20.764Z,24.18
2019-02-22T19:57:49.338Z,12.78
2019-02-22T20:00:18.725Z,11.48
2019-02-22T20:02:47.074Z,9.43
2019-02-22T20:05:15.810Z,9.75
2019-02-22T20:07:44.307Z,11.93
2019-02-22T20:10:18.666Z,9.73
2019-02-22T20:12:47.174Z,9.03
2019-02-22T20:15:16.811Z,8.48
2019-02-22T20:20:16.132Z,10.58
2019-02-22T20:22:45.787Z,8.08
2019-02-22T20:27:43.094Z,8.63
2019-02-22T20:30:21.930Z,8.90
2019-02-22T20:32:52.629Z,8.55
2019-02-22T20:35:26.898Z,9.48
2019-02-22T20:37:55.305Z,8.93
2019-02-22T20:40:24.287Z,8.45
2019-02-22T20:43:12.689Z,9.28
2019-02-22T20:45:57.669Z,8.30
2019-02-22T20:51:27.389Z,7.40
2019-02-22T20:54:19.333Z,7.50
2019-02-22T20:56:48.044Z,7.55
2019-02-22T20:59:17.739Z,8.15
2019-02-22T21:01:46.367Z,7.42
2019-02-22T21:04:14.701Z,7.62
2019-02-22T21:06:43.050Z,7.95
2019-02-22T21:09:11.512Z,8.15
2019-02-22T21:11:39.819Z,7.87
2019-02-22T21:14:08.658Z,8.58
2019-02-22T21:16:37.026Z,8.43
2019-02-22T21:21:57.788Z,9.00
2019-02-22T21:24:26.059Z,9.73
2019-02-22T21:26:54.378Z,10.28
2019-02-22T21:29:22.655Z,9.37
2019-02-22T21:31:50.935Z,8.53
2019-02-22T21:34:20.121Z,10.10
2019-02-22T21:36:48.403Z,10.00
2019-02-22T21:39:16.836Z,9.23
2019-02-22T21:44:38.172Z,10.20
2019-02-22T21:47:08.234Z,10.63
2019-02-22T21:49:37.951Z,10.30
2019-02-22T21:52:11.367Z,10.25
2019-02-22T21:54:47.673Z,10.83
2019-02-22T21:57:15.944Z,9.50
2019-02-22T22:02:21.372Z,10.97
2019-02-22T22:04:49.720Z,10.25
2019-02-22T22:07:18.103Z,11.60
2019-02-22T22:09:46.408Z,10.07
2019-02-22T22:12:14.697Z,10.93
2019-02-22T22:14:43.048Z,10.77
2019-02-22T22:17:11.435Z,11.17
2019-02-22T22:19:39.739Z,10.80
2019-02-22T22:22:08.027Z,10.80
2019-02-22T22:24:36.417Z,11.90
2019-02-22T22:27:04.703Z,11.13
2019-02-22T22:29:33.001Z,11.40
2019-02-22T22:32:01.375Z,11.20
2019-02-22T22:34:29.655Z,11.00
2019-02-22T22:36:58.180Z,11.90
2019-02-22T22:39:26.578Z,10.97
2019-02-22T22:41:54.847Z,11.60
2019-02-22T22:44:23.131Z,10.93
2019-02-22T22:46:51.514Z,11.27
2019-02-22T22:49:19.860Z,10.73
2019-02-22T22:51:48.143Z,10.47
2019-02-22T22:54:16.454Z,10.58
2019-02-22T22:56:44.735Z,11.07
2019-02-22T22:59:13.024Z,11.27
2019-02-22T23:01:41.413Z,10.78
2019-02-22T23:04:09.829Z,11.05
2019-02-22T23:06:38.120Z,12.25
2019-02-22T23:09:08.298Z,11.35
2019-02-22T23:11:36.595Z,12.30
2019-02-22T23:14:04.902Z,12.87
2019-02-22T23:16:33.291Z,11.57
2019-02-22T23:19:02.274Z,10.90
2019-02-22T23:21:30.603Z,8.80
2019-02-22T23:23:58.951Z,12.17
2019-02-22T23:26:27.236Z,12.20
2019-02-22T23:28:55.587Z,11.27
2019-02-22T23:31:24.002Z,12.00
2019-02-22T23:33:52.295Z,10.10
2019-02-22T23:36:20.576Z,10.53
2019-02-22T23:38:49.236Z,9.27
2019-02-22T23:41:17.599Z,9.70
2019-02-22T23:43:45.938Z,9.70
2019-02-22T23:46:14.267Z,9.93
2019-02-22T23:48:42.552Z,10.53
2019-02-22T23:51:10.832Z,9.70
2019-02-22T23:53:39.220Z,10.03
2019-02-22T23:56:07.509Z,10.27
2019-02-22T23:58:35.788Z,12.27
